createdAt,value
2018-06-16T00:00:09.283Z,101094.34
2018-06-16T00:02:38.956Z,101098.34
2018-06-16T00:05:09.966Z,101095.32
2018-06-16T00:07:39.708Z,101089.25
2018-06-16T00:10:09.359Z,101090.30
2018-06-16T00:12:39.843Z,101090.84
2018-06-16T00:15:10.318Z,101091.76
2018-06-16T00:17:40.928Z,101090.55
2018-06-16T00:20:10.782Z,101090.17
2018-06-16T00:22:40.524Z,101089.41
2018-06-16T00:25:10.346Z,101099.34
2018-06-16T00:27:39.987Z,101089.91
2018-06-16T00:30:09.612Z,101088.61
2018-06-16T00:32:40.303Z,101082.58
2018-06-16T00:35:10.971Z,101086.98
2018-06-16T00:37:41.444Z,101082.67
2018-06-16T00:40:11.224Z,101079.72
2018-06-16T00:42:41.275Z,101077.59
2018-06-16T00:45:12.165Z,101078.53
2018-06-16T00:47:43.390Z,101081.08
2018-06-16T00:50:14.158Z,101077.71
2018-06-16T00:52:44.564Z,101077.36
2018-06-16T00:55:14.565Z,101079.63
2018-06-16T00:57:47.557Z,101077.45
2018-06-16T01:00:18.318Z,101075.73
2018-06-16T01:02:48.374Z,101076.23
2018-06-16T01:05:18.011Z,101068.34
2018-06-16T01:07:47.760Z,101074.84
2018-06-16T01:10:18.536Z,101073.55
2018-06-16T01:12:48.885Z,101069.97
2018-06-16T01:15:19.100Z,101078.03
2018-06-16T01:17:49.644Z,101068.55
2018-06-16T01:20:19.816Z,101068.55
2018-06-16T01:22:49.901Z,101058.58
2018-06-16T01:25:20.882Z,101058.58
2018-06-16T01:27:51.045Z,101060.36
2018-06-16T01:30:20.666Z,101062.58
2018-06-16T01:32:51.402Z,101060.33
2018-06-16T01:35:21.950Z,101059.47
2018-06-16T01:37:52.044Z,101057.72
2018-06-16T01:40:21.981Z,101055.05
2018-06-16T01:42:51.780Z,101059.44
2018-06-16T01:45:22.668Z,101057.28
2018-06-16T01:47:52.248Z,101055.03
2018-06-16T01:50:22.031Z,101054.30
2018-06-16T01:52:51.703Z,101055.24
2018-06-16T01:55:22.288Z,101053.27
2018-06-16T01:57:52.146Z,101056.84
2018-06-16T02:00:21.806Z,101060.39
2018-06-16T02:02:51.547Z,101061.70
2018-06-16T02:05:21.575Z,101052.59
2018-06-16T02:07:51.181Z,101058.59
2018-06-16T02:10:20.792Z,101050.91
2018-06-16T02:12:50.452Z,101051.44
2018-06-16T02:15:20.516Z,101047.54
2018-06-16T02:17:50.445Z,101043.64
2018-06-16T02:20:20.445Z,101045.77
2018-06-16T02:22:50.203Z,101043.58
2018-06-16T02:25:19.955Z,101046.09
2018-06-16T02:27:49.651Z,101043.84
2018-06-16T02:30:19.593Z,101042.42
2018-06-16T02:32:49.258Z,101040.70
2018-06-16T02:35:18.819Z,101035.09
2018-06-16T02:37:48.406Z,101047.95
2018-06-16T02:40:18.236Z,101047.44
2018-06-16T02:42:47.928Z,101049.09
2018-06-16T02:45:18.414Z,101052.93
2018-06-16T02:47:48.620Z,101048.70
2018-06-16T02:50:18.515Z,101051.84
2018-06-16T02:52:48.406Z,101050.66
2018-06-16T02:55:19.706Z,101049.34
2018-06-16T02:57:49.357Z,101046.80
2018-06-16T03:00:19.141Z,101046.80
2018-06-16T03:02:48.869Z,101047.71
2018-06-16T03:05:18.623Z,101040.27
2018-06-16T03:07:48.329Z,101048.33
2018-06-16T03:10:18.352Z,101039.28
2018-06-16T03:12:49.003Z,101046.23
2018-06-16T03:15:18.730Z,101044.05
2018-06-16T03:17:48.542Z,101047.09
2018-06-16T03:20:18.886Z,101041.82
2018-06-16T03:22:48.458Z,101041.38
2018-06-16T03:25:18.812Z,101032.66
2018-06-16T03:27:48.444Z,101032.17
2018-06-16T03:30:18.588Z,101031.70
2018-06-16T03:32:47.866Z,101032.02
2018-06-16T03:35:17.728Z,101031.10
2018-06-16T03:37:47.570Z,101031.42
2018-06-16T03:40:17.556Z,101029.73
2018-06-16T03:42:49.309Z,101026.59
2018-06-16T03:45:19.396Z,101032.28
2018-06-16T03:47:49.097Z,101025.77
2018-06-16T03:50:18.715Z,101020.95
2018-06-16T03:52:48.392Z,101023.94
2018-06-16T03:55:18.067Z,101025.23
2018-06-16T03:57:47.813Z,101029.23
2018-06-16T04:00:18.935Z,101025.64
2018-06-16T04:02:48.869Z,101027.39
2018-06-16T04:05:18.550Z,101029.45
2018-06-16T04:07:49.071Z,101022.95
2018-06-16T04:10:19.353Z,101017.55
2018-06-16T04:12:49.154Z,101017.80
2018-06-16T04:15:19.365Z,101016.12
2018-06-16T04:17:49.259Z,101021.22
2018-06-16T04:20:19.514Z,101021.09
2018-06-16T04:22:50.698Z,101015.69
2018-06-16T04:25:20.971Z,101020.04
2018-06-16T04:27:50.694Z,101013.73
2018-06-16T04:30:20.397Z,101011.03
2018-06-16T04:32:50.195Z,101017.06
2018-06-16T04:35:20.143Z,101015.97
2018-06-16T04:37:49.871Z,101012.41
2018-06-16T04:40:19.475Z,101015.08
2018-06-16T04:42:49.512Z,101011.00
2018-06-16T04:45:19.148Z,101010.77
2018-06-16T04:47:49.395Z,101010.86
2018-06-16T04:50:19.935Z,101013.05
2018-06-16T04:52:50.274Z,101016.38
2018-06-16T04:55:20.420Z,101023.03
2018-06-16T04:57:50.970Z,101012.37
2018-06-16T05:00:20.729Z,101012.64
2018-06-16T05:02:50.455Z,101017.53
2018-06-16T05:05:20.559Z,101013.78
2018-06-16T05:07:50.680Z,101012.33
2018-06-16T05:10:20.422Z,101016.39
2018-06-16T05:12:50.188Z,101011.07
2018-06-16T05:15:22.254Z,101012.00
2018-06-16T05:17:52.014Z,101007.94
2018-06-16T05:20:21.624Z,101006.41
2018-06-16T05:22:52.632Z,101001.45
2018-06-16T05:25:22.256Z,101003.69
2018-06-16T05:27:52.721Z,101004.92
2018-06-16T05:30:22.411Z,100995.00
2018-06-16T05:32:52.016Z,100992.56
2018-06-16T05:35:22.597Z,100993.14
2018-06-16T05:37:53.365Z,101000.81
2018-06-16T05:40:23.732Z,101004.77
2018-06-16T05:42:53.731Z,101001.59
2018-06-16T05:45:23.692Z,101002.77
2018-06-16T05:47:54.684Z,101006.28
2018-06-16T05:50:24.671Z,100999.56
2018-06-16T05:52:54.923Z,100999.63
2018-06-16T05:55:26.062Z,101002.56
2018-06-16T05:57:55.735Z,100995.39
2018-06-16T06:00:25.955Z,101000.39
2018-06-16T06:02:55.817Z,100997.66
2018-06-16T06:05:25.755Z,100998.96
2018-06-16T06:07:55.488Z,101004.39
2018-06-16T06:10:25.521Z,101008.53
2018-06-16T06:12:55.126Z,101012.86
2018-06-16T06:15:25.779Z,101007.38
2018-06-16T06:17:55.959Z,101013.01
2018-06-16T06:20:25.873Z,101013.83
2018-06-16T06:22:55.847Z,101014.11
2018-06-16T06:25:25.516Z,101018.75
2018-06-16T06:27:55.918Z,101022.45
2018-06-16T06:30:26.094Z,101018.80
2018-06-16T06:32:56.713Z,101020.47
2018-06-16T06:35:27.097Z,101012.77
2018-06-16T06:37:57.021Z,101011.33
2018-06-16T06:40:28.483Z,101012.64
2018-06-16T06:42:59.177Z,101012.91
2018-06-16T06:45:29.493Z,101011.66
2018-06-16T06:47:59.214Z,101001.55
2018-06-16T06:50:29.220Z,101005.66
2018-06-16T06:52:58.848Z,100994.48
2018-06-16T06:55:28.933Z,100998.14
2018-06-16T06:57:58.587Z,100994.11
2018-06-16T07:00:28.365Z,100990.46
2018-06-16T07:02:59.553Z,100993.57
2018-06-16T07:05:29.598Z,100994.24
2018-06-16T07:08:00.193Z,100998.23
2018-06-16T07:10:32.040Z,100998.88
2018-06-16T07:13:01.761Z,100998.59
2018-06-16T07:15:32.997Z,100996.19
2018-06-16T07:18:03.422Z,100996.91
2018-06-16T07:20:34.742Z,101000.92
2018-06-16T07:23:04.379Z,100992.34
2018-06-16T07:25:34.192Z,100990.80
2018-06-16T07:28:03.945Z,100991.55
2018-06-16T07:30:35.016Z,100990.34
2018-06-16T07:33:05.663Z,100994.44
2018-06-16T07:35:36.398Z,101000.23
2018-06-16T07:38:06.003Z,100995.26
2018-06-16T07:40:37.463Z,100995.91
2018-06-16T07:43:07.743Z,101002.16
2018-06-16T07:45:38.345Z,100993.89
2018-06-16T07:48:08.306Z,100998.38
2018-06-16T07:50:38.065Z,100994.61
2018-06-16T07:53:07.692Z,100989.89
2018-06-16T07:55:37.409Z,100995.84
2018-06-16T07:58:07.134Z,100986.52
2018-06-16T08:00:36.790Z,100995.08
2018-06-16T08:03:06.533Z,100992.55
2018-06-16T08:05:36.940Z,101000.20
2018-06-16T08:08:06.641Z,100996.05
2018-06-16T08:10:36.367Z,100991.95
2018-06-16T08:13:06.182Z,100996.98
2018-06-16T08:15:36.165Z,100996.28
2018-06-16T08:18:05.899Z,100987.50
2018-06-16T08:20:36.646Z,100990.03
2018-06-16T08:23:06.379Z,100985.41
2018-06-16T08:25:35.985Z,100987.19
2018-06-16T08:28:05.648Z,100985.89
2018-06-16T08:30:35.262Z,100982.49
2018-06-16T08:33:05.720Z,100982.44
2018-06-16T08:35:35.410Z,100982.91
2018-06-16T08:38:05.480Z,100978.58
2018-06-16T08:40:38.605Z,100978.71
2018-06-16T08:43:09.320Z,100973.01
2018-06-16T08:45:39.176Z,100969.47
2018-06-16T08:48:08.902Z,100975.56
2018-06-16T08:50:38.758Z,100974.55
2018-06-16T08:53:10.390Z,100976.64
2018-06-16T08:55:40.227Z,100971.40
2018-06-16T08:58:09.530Z,100975.80
2018-06-16T09:00:40.778Z,100980.25
2018-06-16T09:03:11.310Z,100978.58
2018-06-16T09:05:42.008Z,100979.05
2018-06-16T09:08:11.653Z,100978.19
2018-06-16T09:10:42.284Z,100977.27
2018-06-16T09:13:12.289Z,100978.71
2018-06-16T09:15:42.680Z,100975.47
2018-06-16T09:18:12.429Z,100978.02
2018-06-16T09:20:43.557Z,100981.73
2018-06-16T09:23:13.589Z,100976.77
2018-06-16T09:25:44.328Z,100983.63
2018-06-16T09:28:14.442Z,100985.06
2018-06-16T09:30:45.200Z,100986.99
2018-06-16T09:33:15.382Z,100976.48
2018-06-16T09:35:46.074Z,100983.22
2018-06-16T09:38:17.184Z,100984.70
2018-06-16T09:40:47.494Z,100985.56
2018-06-16T09:43:17.225Z,100988.93
2018-06-16T09:45:47.007Z,100984.08
2018-06-16T09:48:17.142Z,100986.99
2018-06-16T09:50:47.064Z,100984.49
2018-06-16T09:53:17.340Z,100985.89
2018-06-16T09:55:47.708Z,100982.79
2018-06-16T09:58:17.483Z,100986.61
2018-06-16T10:00:48.162Z,100979.97
2018-06-16T10:03:17.875Z,100979.37
2018-06-16T10:05:47.646Z,100978.56
2018-06-16T10:08:18.763Z,100978.54
2018-06-16T10:10:49.026Z,100974.38
2018-06-16T10:13:18.655Z,100969.84
2018-06-16T10:15:48.454Z,100968.38
2018-06-16T10:18:18.326Z,100965.32
2018-06-16T10:20:48.615Z,100954.22
2018-06-16T10:23:19.053Z,100956.88
2018-06-16T10:25:48.822Z,100951.09
2018-06-16T10:28:18.707Z,100947.16
2018-06-16T10:30:49.499Z,100944.25
2018-06-16T10:33:19.153Z,100950.30
2018-06-16T10:35:49.285Z,100951.16
2018-06-16T10:38:19.260Z,100947.04
2018-06-16T10:40:50.797Z,100947.93
2018-06-16T10:43:21.659Z,100943.33
2018-06-16T10:45:55.590Z,100943.14
2018-06-16T10:48:25.417Z,100940.70
2018-06-16T10:50:55.465Z,100937.30
2018-06-16T10:53:25.333Z,100939.38
2018-06-16T10:55:54.981Z,100937.33
2018-06-16T10:58:25.276Z,100943.14
2018-06-16T11:00:56.308Z,100940.43
2018-06-16T11:03:27.021Z,100939.11
2018-06-16T11:05:57.594Z,100939.66
2018-06-16T11:08:31.054Z,100936.09
2018-06-16T11:11:01.740Z,100926.78
2018-06-16T11:13:33.880Z,100929.59
2018-06-16T11:16:03.670Z,100923.66
2018-06-16T11:18:35.124Z,100920.70
2018-06-16T11:21:08.621Z,100918.28
2018-06-16T11:23:44.932Z,100911.41
2018-06-16T11:26:14.576Z,100909.23
2018-06-16T11:28:50.371Z,100907.66
2018-06-16T11:31:22.300Z,100905.03
2018-06-16T11:33:54.386Z,100904.09
2018-06-16T11:36:26.538Z,100902.78
2018-06-16T11:38:57.668Z,100898.83
2018-06-16T11:41:28.258Z,100896.08
2018-06-16T11:43:58.596Z,100889.87
2018-06-16T11:46:29.254Z,100882.41
2018-06-16T11:48:59.345Z,100884.58
2018-06-16T11:51:29.012Z,100876.83
2018-06-16T11:53:59.754Z,100872.02
2018-06-16T11:56:30.965Z,100873.92
2018-06-16T11:59:02.164Z,100869.80
2018-06-16T12:01:31.907Z,100866.95
2018-06-16T12:04:02.783Z,100866.95
2018-06-16T12:06:32.413Z,100869.38
2018-06-16T12:09:08.334Z,100871.11
2018-06-16T12:11:40.119Z,100866.35
2018-06-16T12:14:11.429Z,100865.30
2018-06-16T12:16:40.993Z,100861.76
2018-06-16T12:19:10.674Z,100861.00
2018-06-16T12:21:41.166Z,100855.67
2018-06-16T12:24:14.174Z,100852.81
2018-06-16T12:26:45.527Z,100848.52
2018-06-16T12:29:17.314Z,100843.69
2018-06-16T12:31:47.412Z,100849.00
2018-06-16T12:34:17.985Z,100845.94
2018-06-16T12:36:48.644Z,100842.48
2018-06-16T12:39:18.448Z,100836.72
2018-06-16T12:41:48.189Z,100841.82
2018-06-16T12:44:19.191Z,100844.03
2018-06-16T12:46:50.508Z,100845.68
2018-06-16T12:49:21.443Z,100843.37
2018-06-16T12:51:53.304Z,100841.16
2018-06-16T12:54:24.092Z,100838.11
2018-06-16T12:56:54.033Z,100843.95
2018-06-16T12:59:23.736Z,100842.16
2018-06-16T13:01:57.227Z,100845.97
2018-06-16T13:04:28.569Z,100845.14
2018-06-16T13:06:58.304Z,100842.85
2018-06-16T13:09:28.050Z,100840.67
2018-06-16T13:11:58.245Z,100837.35
2018-06-16T13:14:28.680Z,100841.97
2018-06-16T13:17:00.127Z,100838.70
2018-06-16T13:19:31.615Z,100833.61
2018-06-16T13:22:02.609Z,100834.78
2018-06-16T13:24:33.750Z,100836.09
2018-06-16T13:27:03.789Z,100832.37
2018-06-16T13:29:35.377Z,100826.06
2018-06-16T13:32:05.877Z,100825.72
2018-06-16T13:34:36.335Z,100824.48
2018-06-16T13:37:06.078Z,100823.47
2018-06-16T13:39:35.938Z,100833.53
2018-06-16T13:42:05.655Z,100824.64
2018-06-16T13:44:38.862Z,100822.87
2018-06-16T13:47:09.334Z,100818.51
2018-06-16T13:49:39.178Z,100821.30
2018-06-16T13:52:10.311Z,100813.72
2018-06-16T13:54:40.910Z,100814.62
2018-06-16T13:57:11.965Z,100804.93
2018-06-16T13:59:42.086Z,100810.84
2018-06-16T14:02:13.121Z,100809.84
2018-06-16T14:04:44.827Z,100805.99
2018-06-16T14:07:15.506Z,100796.53
2018-06-16T14:09:46.061Z,100795.43
2018-06-16T14:12:15.720Z,100795.49
2018-06-16T14:14:45.107Z,100800.07
2018-06-16T14:17:14.704Z,100801.86
2018-06-16T14:19:44.323Z,100796.57
2018-06-16T14:22:14.018Z,100792.66
2018-06-16T14:24:44.654Z,100795.30
2018-06-16T14:27:15.655Z,100802.53
2018-06-16T14:29:48.447Z,100801.83
2018-06-16T14:32:23.564Z,100805.14
2018-06-16T14:34:53.228Z,100798.94
2018-06-16T14:37:24.678Z,100802.38
2018-06-16T14:39:54.681Z,100801.43
2018-06-16T14:42:26.029Z,100800.07
2018-06-16T14:44:55.984Z,100805.08
2018-06-16T14:47:27.568Z,100810.80
2018-06-16T14:50:01.009Z,100804.83
2018-06-16T14:52:31.591Z,100804.91
2018-06-16T14:55:02.517Z,100806.25
2018-06-16T14:57:33.568Z,100812.98
2018-06-16T15:00:06.869Z,100808.59
2018-06-16T15:02:38.832Z,100806.29
2018-06-16T15:05:09.557Z,100802.70
2018-06-16T15:07:41.973Z,100804.33
2018-06-16T15:10:13.249Z,100799.37
2018-06-16T15:12:44.353Z,100797.55
2018-06-16T15:15:14.727Z,100792.87
2018-06-16T15:17:45.633Z,100791.00
2018-06-16T15:20:16.416Z,100797.72
2018-06-16T15:22:46.079Z,100799.75
2018-06-16T15:25:17.116Z,100794.75
2018-06-16T15:27:48.304Z,100804.27
2018-06-16T15:30:18.852Z,100800.02
2018-06-16T15:32:50.110Z,100798.81
2018-06-16T15:35:20.631Z,100790.94
2018-06-16T15:37:50.432Z,100796.30
2018-06-16T15:40:20.742Z,100800.16
2018-06-16T15:42:51.530Z,100799.05
2018-06-16T15:45:21.556Z,100791.14
2018-06-16T15:47:51.836Z,100794.98
2018-06-16T15:50:22.197Z,100796.66
2018-06-16T15:52:52.121Z,100797.67
2018-06-16T15:55:22.647Z,100796.19
2018-06-16T15:57:52.837Z,100796.77
2018-06-16T16:00:23.543Z,100804.22
2018-06-16T16:02:56.333Z,100800.02
2018-06-16T16:05:27.405Z,100807.09
2018-06-16T16:07:57.117Z,100802.77
2018-06-16T16:10:28.452Z,100798.34
2018-06-16T16:13:01.050Z,100794.05
2018-06-16T16:15:32.042Z,100795.57
2018-06-16T16:18:02.675Z,100792.99
2018-06-16T16:20:37.374Z,100793.42
2018-06-16T16:23:08.062Z,100798.27
2018-06-16T16:25:41.188Z,100792.57
2018-06-16T16:28:10.808Z,100795.59
2018-06-16T16:30:42.217Z,100798.99
2018-06-16T16:33:12.232Z,100793.89
2018-06-16T16:35:42.216Z,100784.83
2018-06-16T16:38:11.869Z,100788.22
2018-06-16T16:40:42.649Z,100784.95
2018-06-16T16:43:14.028Z,100788.52
2018-06-16T16:45:44.668Z,100783.14
2018-06-16T16:48:15.485Z,100784.02
2018-06-16T16:50:46.184Z,100776.20
2018-06-16T16:53:16.740Z,100775.59
2018-06-16T16:55:46.403Z,100774.53
2018-06-16T16:58:16.146Z,100776.16
2018-06-16T17:00:47.015Z,100779.42
2018-06-16T17:03:16.796Z,100778.02
2018-06-16T17:05:47.528Z,100769.51
2018-06-16T17:08:18.459Z,100771.30
2018-06-16T17:10:48.175Z,100778.33
2018-06-16T17:13:19.467Z,100774.97
2018-06-16T17:15:50.171Z,100769.28
2018-06-16T17:18:20.968Z,100773.94
2018-06-16T17:20:50.744Z,100770.07
2018-06-16T17:23:21.533Z,100771.80
2018-06-16T17:25:51.883Z,100772.06
2018-06-16T17:28:21.792Z,100761.03
2018-06-16T17:30:52.190Z,100755.53
2018-06-16T17:33:22.512Z,100762.28
2018-06-16T17:35:53.482Z,100759.47
2018-06-16T17:38:23.866Z,100759.70
2018-06-16T17:40:54.347Z,100759.36
2018-06-16T17:43:24.647Z,100763.50
2018-06-16T17:45:56.731Z,100765.77
2018-06-16T17:48:27.665Z,100764.70
2018-06-16T17:50:57.502Z,100761.97
2018-06-16T17:53:32.171Z,100757.88
2018-06-16T17:56:01.877Z,100753.36
2018-06-16T17:58:31.852Z,100755.18
2018-06-16T18:01:02.495Z,100751.86
2018-06-16T18:03:32.280Z,100752.22
2018-06-16T18:06:03.304Z,100754.91
2018-06-16T18:08:33.438Z,100745.63
2018-06-16T18:11:03.805Z,100741.56
2018-06-16T18:13:34.482Z,100749.51
2018-06-16T18:16:04.267Z,100749.84
2018-06-16T18:18:35.317Z,100743.47
2018-06-16T18:21:05.262Z,100745.28
2018-06-16T18:23:34.848Z,100748.25
2018-06-16T18:26:05.218Z,100749.81
2018-06-16T18:30:04.585Z,100755.10
2018-06-16T18:32:35.623Z,100761.61
2018-06-16T18:35:05.714Z,100756.19
2018-06-16T18:37:36.548Z,100757.75
2018-06-16T18:40:06.296Z,100757.95
2018-06-16T18:42:36.147Z,100764.89
2018-06-16T18:45:06.027Z,100763.04
2018-06-16T18:47:35.837Z,100757.02
2018-06-16T18:50:05.962Z,100755.89
2018-06-16T18:52:35.723Z,100749.13
2018-06-16T18:59:59.640Z,100749.41
2018-06-16T19:02:29.247Z,100750.66
2018-06-16T19:05:01.300Z,100753.47
2018-06-16T19:07:31.128Z,100747.70
2018-06-16T19:10:03.273Z,100752.92
2018-06-16T19:13:03.355Z,100748.61
2018-06-16T19:15:33.091Z,100751.09
2018-06-16T19:18:02.948Z,100752.37
2018-06-16T19:20:33.081Z,100755.05
2018-06-16T19:23:02.849Z,100754.44
2018-06-16T19:25:32.545Z,100749.23
2018-06-16T19:28:02.346Z,100755.58
2018-06-16T19:30:32.274Z,100753.88
2018-06-16T19:33:03.027Z,100751.51
2018-06-16T19:35:32.869Z,100746.90
2018-06-16T19:38:03.444Z,100747.39
2018-06-16T19:40:33.762Z,100756.08
2018-06-16T19:43:03.492Z,100758.20
2018-06-16T19:45:33.348Z,100760.39
2018-06-16T19:48:03.735Z,100761.80
2018-06-16T19:50:33.652Z,100766.25
2018-06-16T19:53:04.571Z,100772.63
2018-06-16T19:55:34.417Z,100770.08
2018-06-16T19:58:04.196Z,100776.18
2018-06-16T20:00:34.072Z,100775.67
2018-06-16T20:03:04.747Z,100782.00
2018-06-16T20:05:34.488Z,100782.09
2018-06-16T20:08:04.891Z,100788.48
2018-06-16T20:10:35.287Z,100786.20
2018-06-16T20:13:05.086Z,100785.19
2018-06-16T20:15:34.455Z,100790.98
2018-06-16T20:18:04.288Z,100784.44
2018-06-16T20:20:35.687Z,100786.30
2018-06-16T20:23:05.830Z,100783.38
2018-06-16T20:25:35.684Z,100777.45
2018-06-16T20:28:05.418Z,100781.77
2018-06-16T20:30:36.710Z,100783.04
2018-06-16T20:33:06.403Z,100789.68
2018-06-16T20:35:36.118Z,100784.90
2018-06-16T20:38:05.924Z,100789.05
2018-06-16T20:40:36.935Z,100784.89
2018-06-16T20:43:06.838Z,100783.34
2018-06-16T20:45:36.602Z,100781.04
2018-06-16T20:48:06.639Z,100778.24
2018-06-16T20:50:36.509Z,100777.27
2018-06-16T20:53:06.247Z,100773.63
2018-06-16T20:55:36.866Z,100773.16
2018-06-16T20:58:06.843Z,100770.64
2018-06-16T21:00:37.459Z,100762.93
2018-06-16T21:03:07.420Z,100770.64
2018-06-16T21:05:37.197Z,100765.01
2018-06-16T21:08:07.643Z,100764.77
2018-06-16T21:10:37.355Z,100765.94
2018-06-16T21:13:07.071Z,100770.08
2018-06-16T21:15:38.177Z,100775.47
2018-06-16T21:18:10.809Z,100781.00
2018-06-16T21:20:40.929Z,100782.52
2018-06-16T21:23:14.108Z,100772.77
2018-06-16T21:25:45.120Z,100771.57
2018-06-16T21:28:16.696Z,100773.73
2018-06-16T21:30:46.997Z,100778.81
2018-06-16T21:33:17.799Z,100779.16
2018-06-16T21:35:47.718Z,100771.75
2018-06-16T21:38:17.823Z,100777.51
2018-06-16T21:40:47.720Z,100779.06
2018-06-16T21:43:19.696Z,100779.82
2018-06-16T21:45:49.491Z,100783.74
2018-06-16T21:48:19.346Z,100786.52
2018-06-16T21:50:49.483Z,100789.41
2018-06-16T21:53:22.182Z,100815.58
2018-06-16T21:55:54.472Z,100829.62
2018-06-16T21:58:24.188Z,100842.82
2018-06-16T22:00:54.015Z,100835.01
2018-06-16T22:03:23.667Z,100849.12
2018-06-16T22:05:54.994Z,100845.17
2018-06-16T22:08:30.539Z,100854.44
2018-06-16T22:11:02.932Z,100854.55
2018-06-16T22:13:32.867Z,100856.08
2018-06-16T22:16:03.539Z,100854.34
2018-06-16T22:18:33.398Z,100837.58
2018-06-16T22:21:04.004Z,100831.31
2018-06-16T22:23:33.854Z,100832.20
2018-06-16T22:26:03.524Z,100824.49
2018-06-16T22:28:33.338Z,100825.37
2018-06-16T22:31:03.069Z,100831.53
2018-06-16T22:33:32.822Z,100827.50
2018-06-16T22:36:04.456Z,100830.28
2018-06-16T22:38:34.660Z,100837.28
2018-06-16T22:41:05.436Z,100832.84
2018-06-16T22:43:35.154Z,100838.88
2018-06-16T22:46:05.477Z,100838.34
2018-06-16T22:48:36.265Z,100832.51
2018-06-16T22:51:07.485Z,100830.72
2018-06-16T22:53:38.139Z,100829.50
2018-06-16T22:56:08.977Z,100847.42
2018-06-16T22:58:39.813Z,100843.03
2018-06-16T23:01:09.580Z,100855.25
2018-06-16T23:03:40.000Z,100871.22
2018-06-16T23:06:09.838Z,100882.06
2018-06-16T23:08:39.679Z,100876.94
2018-06-16T23:11:10.730Z,100874.81
2018-06-16T23:13:40.424Z,100879.21
2018-06-16T23:16:10.096Z,100890.09
2018-06-16T23:18:40.783Z,100896.73
2018-06-16T23:21:11.539Z,100885.12
2018-06-16T23:23:42.175Z,100886.74
2018-06-16T23:26:12.659Z,100884.58
2018-06-16T23:28:43.119Z,100887.93
2018-06-16T23:31:13.616Z,100900.18
2018-06-16T23:33:43.685Z,100915.30
2018-06-16T23:36:14.501Z,100904.09
2018-06-16T23:38:46.195Z,100885.94
2018-06-16T23:41:15.966Z,100883.86
2018-06-16T23:43:45.694Z,100873.73
2018-06-16T23:46:15.546Z,100871.38
2018-06-16T23:48:45.915Z,100872.70
2018-06-16T23:51:15.826Z,100864.27
2018-06-16T23:53:45.612Z,100865.47
2018-06-16T23:56:15.729Z,100871.28
2018-06-16T23:58:45.400Z,100871.13
